createdAt,value
2017-11-19T00:00:53.902Z,75.70
2017-11-19T00:03:21.456Z,75.70
2017-11-19T00:05:49.067Z,76.30
2017-11-19T00:08:17.457Z,76.00
2017-11-19T00:10:45.016Z,75.90
2017-11-19T00:13:12.581Z,75.80
2017-11-19T00:15:40.196Z,75.90
2017-11-19T00:18:07.772Z,75.70
2017-11-19T00:20:35.324Z,76.00
2017-11-19T00:23:02.923Z,76.20
2017-11-19T00:25:30.504Z,76.30
2017-11-19T00:27:58.101Z,76.40
2017-11-19T00:30:25.676Z,75.80
2017-11-19T00:32:53.248Z,76.60
2017-11-19T00:35:22.148Z,76.50
2017-11-19T00:37:49.711Z,77.10
2017-11-19T00:40:18.068Z,77.50
2017-11-19T00:42:46.458Z,77.90
2017-11-19T00:45:14.046Z,77.90
2017-11-19T00:47:41.609Z,79.40
2017-11-19T00:50:09.197Z,78.60
2017-11-19T00:52:36.744Z,79.40
2017-11-19T00:55:04.336Z,79.50
2017-11-19T00:57:31.912Z,79.50
2017-11-19T01:00:00.345Z,81.20
2017-11-19T01:02:27.880Z,81.20
2017-11-19T01:04:55.437Z,81.10
2017-11-19T01:07:23.026Z,81.30
2017-11-19T01:09:50.621Z,81.60
2017-11-19T01:12:18.216Z,81.50
2017-11-19T01:17:20.677Z,81.20
2017-11-19T01:19:48.237Z,81.80
2017-11-19T01:22:15.836Z,81.00
2017-11-19T01:24:43.443Z,81.20
2017-11-19T01:27:11.000Z,82.10
2017-11-19T01:29:38.560Z,81.70
2017-11-19T01:32:06.205Z,81.70
2017-11-19T01:34:33.804Z,81.70
2017-11-19T01:37:01.387Z,82.20
2017-11-19T01:39:29.715Z,82.30
2017-11-19T01:41:57.314Z,82.30
2017-11-19T01:44:25.643Z,83.70
2017-11-19T01:46:53.975Z,83.70
2017-11-19T01:49:22.348Z,83.40
2017-11-19T01:51:49.928Z,83.30
2017-11-19T01:54:17.527Z,84.10
2017-11-19T01:56:45.100Z,84.30
2017-11-19T01:59:12.692Z,83.60
2017-11-19T02:01:41.016Z,84.20
2017-11-19T02:04:08.571Z,83.40
2017-11-19T02:06:36.163Z,82.80
2017-11-19T02:09:03.735Z,83.60
2017-11-19T02:11:31.343Z,83.70
2017-11-19T02:13:58.903Z,84.00
2017-11-19T02:16:26.496Z,83.00
2017-11-19T02:18:54.084Z,82.30
2017-11-19T02:21:21.630Z,83.40
2017-11-19T02:23:49.220Z,83.40
2017-11-19T02:26:17.578Z,84.00
2017-11-19T02:28:45.173Z,84.00
2017-11-19T02:31:13.479Z,82.30
2017-11-19T02:33:41.033Z,82.30
2017-11-19T02:36:08.633Z,81.90
2017-11-19T02:38:36.233Z,82.70
2017-11-19T02:41:04.543Z,82.00
2017-11-19T02:43:32.133Z,82.00
2017-11-19T02:45:59.743Z,82.30
2017-11-19T02:48:27.295Z,82.80
2017-11-19T02:50:55.652Z,81.00
2017-11-19T02:53:23.204Z,81.00
2017-11-19T02:55:50.811Z,81.90
2017-11-19T02:58:18.364Z,81.40
2017-11-19T03:00:45.907Z,82.70
2017-11-19T03:03:14.281Z,81.50
2017-11-19T03:05:42.596Z,82.10
2017-11-19T03:08:10.151Z,81.40
2017-11-19T03:10:37.762Z,81.20
2017-11-19T03:13:05.320Z,81.50
2017-11-19T03:15:32.895Z,82.10
2017-11-19T03:18:01.255Z,81.70
2017-11-19T03:20:28.815Z,81.70
2017-11-19T03:22:56.410Z,82.10
2017-11-19T03:25:24.766Z,82.10
2017-11-19T03:27:52.371Z,82.00
2017-11-19T03:30:19.936Z,83.20
2017-11-19T03:32:47.508Z,81.70
2017-11-19T03:35:15.114Z,82.10
2017-11-19T03:37:42.672Z,82.50
2017-11-19T03:40:10.276Z,82.10
2017-11-19T03:42:37.823Z,82.10
2017-11-19T03:45:05.416Z,81.20
2017-11-19T03:47:33.105Z,81.20
2017-11-19T03:50:00.652Z,81.60
2017-11-19T03:52:28.204Z,82.10
2017-11-19T03:54:55.788Z,82.00
2017-11-19T03:57:23.392Z,81.30
2017-11-19T03:59:50.948Z,80.70
2017-11-19T04:02:18.499Z,81.00
2017-11-19T04:04:46.852Z,81.20
2017-11-19T04:07:14.412Z,81.20
2017-11-19T04:09:41.969Z,81.10
2017-11-19T04:12:09.564Z,80.70
2017-11-19T04:14:37.111Z,81.40
2017-11-19T04:17:05.433Z,80.60
2017-11-19T04:19:33.018Z,80.60
2017-11-19T04:22:00.570Z,80.60
2017-11-19T04:24:28.126Z,80.70
2017-11-19T04:26:55.744Z,81.10
2017-11-19T04:29:23.310Z,81.00
2017-11-19T04:31:50.868Z,81.50
2017-11-19T04:34:18.451Z,80.90
2017-11-19T04:36:46.040Z,81.20
2017-11-19T04:39:13.610Z,81.30
2017-11-19T04:41:41.170Z,81.00
2017-11-19T04:44:08.782Z,81.30
2017-11-19T04:46:36.341Z,81.10
2017-11-19T04:49:03.948Z,81.00
2017-11-19T04:51:31.500Z,80.70
2017-11-19T04:53:59.099Z,81.10
2017-11-19T04:56:27.470Z,81.00
2017-11-19T04:58:55.800Z,80.70
2017-11-19T05:01:23.393Z,80.70
2017-11-19T05:03:50.997Z,80.90
2017-11-19T05:06:18.600Z,81.20
2017-11-19T05:08:46.216Z,81.20
2017-11-19T05:11:13.857Z,81.80
2017-11-19T05:13:42.180Z,81.30
2017-11-19T05:16:09.744Z,81.30
2017-11-19T05:18:37.332Z,81.40
2017-11-19T05:21:04.944Z,82.10
2017-11-19T05:23:32.494Z,82.20
2017-11-19T05:26:00.814Z,82.60
2017-11-19T05:28:28.431Z,82.40
2017-11-19T05:30:56.751Z,83.00
2017-11-19T05:33:24.300Z,83.00
2017-11-19T05:35:51.879Z,83.20
2017-11-19T05:38:19.467Z,82.80
2017-11-19T05:40:47.026Z,82.80
2017-11-19T05:43:14.616Z,83.30
2017-11-19T05:45:42.174Z,83.00
2017-11-19T05:48:10.515Z,83.30
2017-11-19T05:50:38.068Z,83.30
2017-11-19T05:53:05.660Z,83.70
2017-11-19T05:55:34.034Z,84.10
2017-11-19T05:58:01.578Z,84.00
2017-11-19T06:00:29.123Z,83.70
2017-11-19T06:02:56.742Z,83.00
2017-11-19T06:05:24.304Z,82.60
2017-11-19T06:07:51.851Z,82.50
2017-11-19T06:10:20.204Z,82.70
2017-11-19T06:12:47.812Z,82.70
2017-11-19T06:15:15.422Z,82.40
2017-11-19T06:17:42.975Z,82.60
2017-11-19T06:20:10.582Z,82.80
2017-11-19T06:22:38.286Z,83.00
2017-11-19T06:25:05.841Z,83.00
2017-11-19T06:27:33.410Z,83.30
2017-11-19T06:30:00.999Z,83.60
2017-11-19T06:32:29.323Z,82.50
2017-11-19T06:34:56.922Z,82.50
2017-11-19T06:37:24.485Z,82.70
2017-11-19T06:39:52.119Z,83.00
2017-11-19T06:42:19.711Z,83.20
2017-11-19T06:44:47.275Z,82.80
2017-11-19T06:47:14.871Z,83.00
2017-11-19T06:49:42.428Z,83.20
2017-11-19T06:52:09.975Z,82.70
2017-11-19T06:54:38.320Z,82.50
2017-11-19T06:57:05.876Z,82.50
2017-11-19T06:59:33.467Z,82.60
2017-11-19T07:02:01.795Z,82.60
2017-11-19T07:04:29.381Z,82.60
2017-11-19T07:06:56.960Z,82.10
2017-11-19T07:09:24.573Z,82.10
2017-11-19T07:11:52.200Z,82.20
2017-11-19T07:14:20.536Z,82.80
2017-11-19T07:16:48.088Z,82.70
2017-11-19T07:19:15.682Z,82.90
2017-11-19T07:21:43.280Z,82.80
2017-11-19T07:24:10.836Z,83.20
2017-11-19T07:26:38.382Z,83.70
2017-11-19T07:29:06.732Z,84.30
2017-11-19T07:31:34.316Z,84.20
2017-11-19T07:34:02.642Z,84.10
2017-11-19T07:36:30.228Z,84.10
2017-11-19T07:38:57.781Z,84.30
2017-11-19T07:41:25.662Z,84.60
2017-11-19T07:43:53.241Z,84.30
2017-11-19T07:46:21.582Z,84.10
2017-11-19T07:48:49.172Z,84.10
2017-11-19T07:51:17.549Z,84.00
2017-11-19T07:53:45.895Z,83.60
2017-11-19T07:56:13.490Z,83.60
2017-11-19T07:58:41.861Z,84.40
2017-11-19T08:01:09.411Z,84.10
2017-11-19T08:03:37.011Z,84.00
2017-11-19T08:06:04.585Z,84.00
2017-11-19T08:08:32.176Z,84.00
2017-11-19T08:10:59.772Z,83.90
2017-11-19T08:13:27.457Z,83.70
2017-11-19T08:15:55.016Z,84.30
2017-11-19T08:18:23.372Z,82.70
2017-11-19T08:20:50.923Z,82.70
2017-11-19T08:23:18.525Z,82.30
2017-11-19T08:25:46.084Z,83.10
2017-11-19T08:28:13.717Z,82.70
2017-11-19T08:30:42.046Z,82.80
2017-11-19T08:33:09.619Z,82.80
2017-11-19T08:35:37.212Z,82.90
2017-11-19T08:38:05.583Z,83.00
2017-11-19T08:40:33.149Z,82.90
2017-11-19T08:43:00.756Z,83.20
2017-11-19T08:45:28.310Z,83.20
2017-11-19T08:47:56.721Z,82.90
2017-11-19T08:50:24.316Z,82.80
2017-11-19T08:52:51.915Z,82.70
2017-11-19T08:55:19.476Z,82.50
2017-11-19T08:57:47.080Z,82.30
2017-11-19T09:00:14.669Z,82.30
2017-11-19T09:02:43.028Z,82.30
2017-11-19T09:05:10.591Z,82.30
2017-11-19T09:07:38.192Z,81.80
2017-11-19T09:10:05.741Z,81.00
2017-11-19T09:12:34.085Z,80.80
2017-11-19T09:15:01.680Z,80.70
2017-11-19T09:17:30.027Z,79.30
2017-11-19T09:19:57.636Z,79.30
2017-11-19T09:22:25.216Z,78.30
2017-11-19T09:24:52.836Z,78.20
2017-11-19T09:27:21.151Z,77.50
2017-11-19T09:29:48.712Z,77.50
2017-11-19T09:32:16.310Z,77.70
2017-11-19T09:34:43.875Z,76.70
2017-11-19T09:37:11.472Z,76.60
2017-11-19T09:39:39.038Z,77.50
2017-11-19T09:42:06.638Z,76.20
2017-11-19T09:44:34.205Z,76.70
2017-11-19T09:47:01.773Z,75.80
2017-11-19T09:49:29.378Z,75.30
2017-11-19T09:51:56.932Z,75.20
2017-11-19T09:54:24.506Z,75.40
2017-11-19T09:56:52.102Z,75.00
2017-11-19T09:59:19.715Z,74.50
2017-11-19T10:01:47.307Z,74.20
2017-11-19T10:04:14.868Z,74.50
2017-11-19T10:06:42.469Z,73.00
2017-11-19T10:09:10.027Z,73.70
2017-11-19T10:11:37.653Z,74.20
2017-11-19T10:14:05.199Z,73.60
2017-11-19T10:16:32.771Z,73.70
2017-11-19T10:19:00.333Z,73.30
2017-11-19T10:21:27.921Z,73.60
2017-11-19T10:23:56.321Z,72.50
2017-11-19T10:26:24.680Z,72.50
2017-11-19T10:28:52.321Z,72.40
2017-11-19T10:31:19.914Z,71.10
2017-11-19T10:33:48.274Z,70.50
2017-11-19T10:36:15.836Z,70.40
2017-11-19T10:38:43.445Z,70.10
2017-11-19T10:41:11.003Z,69.70
2017-11-19T10:43:38.559Z,69.60
2017-11-19T10:46:06.906Z,69.00
2017-11-19T10:48:34.498Z,69.00
2017-11-19T10:51:02.202Z,68.30
2017-11-19T10:53:29.761Z,69.00
2017-11-19T10:55:57.311Z,68.70
2017-11-19T10:58:24.930Z,70.10
2017-11-19T11:00:53.267Z,68.30
2017-11-19T11:03:20.832Z,68.30
2017-11-19T11:05:48.449Z,66.60
2017-11-19T11:08:16.052Z,64.10
2017-11-19T11:10:43.647Z,64.50
2017-11-19T11:13:12.021Z,65.50
2017-11-19T11:15:40.390Z,65.20
2017-11-19T11:18:08.018Z,65.20
2017-11-19T11:20:35.586Z,65.00
2017-11-19T11:23:03.161Z,65.60
2017-11-19T11:25:30.761Z,65.70
2017-11-19T11:27:59.087Z,66.70
2017-11-19T11:30:26.647Z,66.60
2017-11-19T11:32:54.238Z,66.80
2017-11-19T11:35:21.831Z,66.30
2017-11-19T11:37:50.146Z,66.50
2017-11-19T11:40:17.727Z,66.50
2017-11-19T11:42:45.277Z,65.20
2017-11-19T11:45:12.875Z,64.50
2017-11-19T11:47:41.186Z,64.50
2017-11-19T11:50:08.753Z,64.40
2017-11-19T11:52:36.365Z,64.80
2017-11-19T11:55:03.922Z,65.90
2017-11-19T11:57:31.523Z,66.70
2017-11-19T11:59:59.098Z,65.40
2017-11-19T12:02:26.661Z,63.60
2017-11-19T12:04:54.256Z,65.10
2017-11-19T12:07:21.954Z,64.10
2017-11-19T12:09:50.264Z,64.80
2017-11-19T12:12:17.813Z,64.80
2017-11-19T12:14:45.402Z,65.60
2017-11-19T12:17:12.994Z,66.30
2017-11-19T12:19:40.542Z,65.90
2017-11-19T12:22:08.886Z,64.90
2017-11-19T12:24:37.254Z,63.90
2017-11-19T12:27:04.884Z,63.80
2017-11-19T12:29:33.232Z,64.30
2017-11-19T12:32:00.836Z,64.30
2017-11-19T12:34:29.220Z,63.40
2017-11-19T12:36:56.815Z,63.30
2017-11-19T12:39:24.369Z,64.10
2017-11-19T12:41:51.968Z,62.10
2017-11-19T12:44:19.522Z,62.10
2017-11-19T12:46:47.154Z,62.60
2017-11-19T12:49:15.512Z,63.70
2017-11-19T12:51:43.063Z,63.70
2017-11-19T12:54:10.653Z,62.90
2017-11-19T12:56:38.212Z,63.10
2017-11-19T12:59:05.773Z,62.80
2017-11-19T13:01:33.368Z,63.50
2017-11-19T13:04:00.976Z,63.30
2017-11-19T13:06:28.580Z,63.20
2017-11-19T13:08:57.684Z,63.60
2017-11-19T13:11:25.243Z,63.70
2017-11-19T13:13:52.864Z,63.80
2017-11-19T13:16:20.424Z,63.60
2017-11-19T13:18:48.009Z,64.50
2017-11-19T13:21:15.583Z,64.20
2017-11-19T13:23:43.172Z,64.60
2017-11-19T13:26:11.507Z,64.90
2017-11-19T13:28:39.118Z,64.80
2017-11-19T13:31:07.452Z,65.20
2017-11-19T13:33:34.990Z,65.10
2017-11-19T13:36:02.652Z,65.10
2017-11-19T13:38:30.271Z,65.70
2017-11-19T13:40:57.897Z,66.00
2017-11-19T13:43:25.446Z,66.00
2017-11-19T13:45:53.045Z,66.00
2017-11-19T13:48:21.375Z,66.40
2017-11-19T13:50:48.960Z,66.40
2017-11-19T13:53:16.517Z,66.60
2017-11-19T13:55:44.149Z,66.00
2017-11-19T13:58:11.731Z,65.80
2017-11-19T14:00:39.290Z,66.00
2017-11-19T14:03:06.881Z,65.50
2017-11-19T14:05:35.220Z,67.80
2017-11-19T14:08:02.854Z,67.80
2017-11-19T14:10:30.412Z,66.10
2017-11-19T14:12:58.752Z,65.60
2017-11-19T14:15:26.352Z,65.50
2017-11-19T14:17:53.961Z,65.70
2017-11-19T14:20:21.556Z,64.20
2017-11-19T14:22:49.917Z,64.50
2017-11-19T14:25:18.259Z,65.50
2017-11-19T14:27:45.855Z,64.80
2017-11-19T14:30:13.450Z,64.80
2017-11-19T14:32:41.799Z,63.90
2017-11-19T14:35:09.379Z,63.90
2017-11-19T14:37:37.766Z,64.20
2017-11-19T14:40:06.096Z,64.00
2017-11-19T14:42:33.648Z,63.90
2017-11-19T14:45:01.251Z,64.20
2017-11-19T14:47:29.621Z,64.50
2017-11-19T14:49:57.182Z,64.50
2017-11-19T14:52:24.813Z,65.40
2017-11-19T14:54:52.412Z,65.00
2017-11-19T14:57:20.801Z,64.10
2017-11-19T14:59:49.171Z,64.30
2017-11-19T15:02:17.506Z,64.50
2017-11-19T15:04:45.203Z,64.50
2017-11-19T15:07:12.803Z,64.10
2017-11-19T15:09:40.387Z,64.10
2017-11-19T15:12:07.982Z,64.50
2017-11-19T15:14:35.556Z,64.00
2017-11-19T15:17:03.913Z,63.90
2017-11-19T15:19:31.523Z,63.80
2017-11-19T15:21:59.090Z,64.00
2017-11-19T15:24:26.689Z,64.20
2017-11-19T15:26:54.286Z,64.80
2017-11-19T15:29:22.655Z,65.00
2017-11-19T15:31:50.248Z,64.20
2017-11-19T15:34:17.859Z,64.60
2017-11-19T15:36:45.497Z,64.90
2017-11-19T15:39:13.090Z,65.10
2017-11-19T15:41:40.668Z,65.00
2017-11-19T15:44:08.994Z,65.70
2017-11-19T15:46:36.777Z,65.60
2017-11-19T15:49:04.474Z,66.00
2017-11-19T15:51:32.099Z,66.60
2017-11-19T15:53:59.815Z,66.60
2017-11-19T15:56:27.542Z,66.60
2017-11-19T15:58:55.092Z,67.00
2017-11-19T16:01:22.698Z,67.00
2017-11-19T16:03:50.320Z,67.10
2017-11-19T16:06:17.895Z,67.00
2017-11-19T16:08:45.492Z,67.00
2017-11-19T16:11:13.074Z,66.90
2017-11-19T16:13:40.669Z,66.70
2017-11-19T16:16:08.402Z,66.70
2017-11-19T16:18:35.945Z,66.70
2017-11-19T16:21:03.507Z,66.90
2017-11-19T16:23:31.107Z,67.20
2017-11-19T16:25:58.691Z,66.90
2017-11-19T16:28:27.061Z,67.60
2017-11-19T16:30:54.620Z,67.50
2017-11-19T16:33:22.245Z,67.40
2017-11-19T16:35:49.853Z,67.90
2017-11-19T16:38:18.180Z,67.80
2017-11-19T16:40:45.745Z,67.70
2017-11-19T16:43:13.348Z,68.20
2017-11-19T16:45:40.913Z,67.70
2017-11-19T16:48:09.280Z,67.60
2017-11-19T16:50:37.629Z,67.90
2017-11-19T16:53:05.247Z,67.80
2017-11-19T16:55:33.582Z,68.00
2017-11-19T16:58:01.171Z,68.00
2017-11-19T17:00:29.553Z,67.80
2017-11-19T17:02:57.191Z,67.80
2017-11-19T17:05:24.754Z,67.90
2017-11-19T17:07:52.369Z,67.80
2017-11-19T17:10:22.200Z,67.60
2017-11-19T17:12:51.804Z,67.30
2017-11-19T17:15:21.752Z,67.30
2017-11-19T17:17:51.621Z,67.20
2017-11-19T17:20:21.260Z,67.70
2017-11-19T17:22:50.959Z,67.20
2017-11-19T17:25:20.708Z,67.50
2017-11-19T17:27:49.796Z,67.60
2017-11-19T17:30:17.400Z,67.50
2017-11-19T17:32:44.965Z,67.10
2017-11-19T17:35:15.027Z,67.20
2017-11-19T17:37:42.619Z,67.30
2017-11-19T17:40:11.003Z,67.10
2017-11-19T17:42:39.350Z,66.80
2017-11-19T17:45:06.960Z,66.90
2017-11-19T17:47:34.668Z,67.10
2017-11-19T17:50:02.328Z,66.90
2017-11-19T17:52:29.888Z,67.10
2017-11-19T17:54:57.484Z,67.30
2017-11-19T17:57:25.844Z,67.20
2017-11-19T17:59:53.454Z,67.10
2017-11-19T18:02:21.021Z,67.00
2017-11-19T18:04:48.584Z,67.00
2017-11-19T18:07:16.199Z,67.40
2017-11-19T18:09:44.552Z,66.80
2017-11-19T18:12:12.168Z,66.70
2017-11-19T18:14:39.880Z,67.00
2017-11-19T18:17:07.448Z,66.80
2017-11-19T18:19:35.144Z,66.70
2017-11-19T18:22:03.520Z,66.70
2017-11-19T18:24:31.887Z,66.40
2017-11-19T18:27:00.248Z,66.40
2017-11-19T18:29:27.813Z,66.40
2017-11-19T18:31:55.438Z,66.70
2017-11-19T18:34:23.016Z,67.10
2017-11-19T18:36:50.570Z,67.50
2017-11-19T18:39:18.170Z,67.50
2017-11-19T18:41:46.539Z,68.40
2017-11-19T18:44:14.107Z,68.20
2017-11-19T18:46:41.719Z,68.10
2017-11-19T18:49:09.318Z,68.10
2017-11-19T18:51:36.882Z,68.20
2017-11-19T18:54:05.331Z,68.10
2017-11-19T18:56:32.904Z,68.10
2017-11-19T18:59:00.504Z,68.10
2017-11-19T19:01:28.865Z,68.60
2017-11-19T19:03:56.439Z,68.40
2017-11-19T19:06:24.823Z,68.30
2017-11-19T19:08:53.146Z,68.50
2017-11-19T19:11:20.740Z,68.40
2017-11-19T19:13:48.335Z,68.70
2017-11-19T19:16:15.896Z,68.40
2017-11-19T19:18:44.277Z,68.70
2017-11-19T19:21:11.842Z,68.60
2017-11-19T19:23:39.406Z,68.80
2017-11-19T19:26:07.016Z,68.80
2017-11-19T19:28:34.619Z,69.10
2017-11-19T19:31:02.224Z,69.00
2017-11-19T19:33:29.820Z,68.90
2017-11-19T19:35:58.228Z,68.90
2017-11-19T19:38:25.841Z,68.90
2017-11-19T19:40:53.440Z,68.90
2017-11-19T19:43:21.776Z,69.20
2017-11-19T19:45:49.380Z,69.00
2017-11-19T19:48:17.780Z,68.80
2017-11-19T19:50:45.339Z,68.80
2017-11-19T19:53:12.909Z,68.80
2017-11-19T19:55:40.525Z,69.10
2017-11-19T19:58:08.868Z,69.00
2017-11-19T20:00:36.470Z,69.00
2017-11-19T20:03:04.832Z,69.20
2017-11-19T20:05:32.392Z,69.20
2017-11-19T20:07:59.988Z,69.10
2017-11-19T20:10:27.549Z,69.50
2017-11-19T20:12:55.151Z,69.30
2017-11-19T20:15:22.746Z,69.00
2017-11-19T20:17:51.127Z,69.00
2017-11-19T20:20:19.576Z,68.90
2017-11-19T20:22:47.207Z,68.90
2017-11-19T20:25:14.803Z,69.00
2017-11-19T20:27:42.360Z,68.90
2017-11-19T20:30:10.007Z,69.00
2017-11-19T20:32:37.580Z,69.10
2017-11-19T20:35:05.179Z,69.20
2017-11-19T20:37:33.538Z,69.30
2017-11-19T20:40:01.133Z,69.20
2017-11-19T20:42:28.729Z,69.20
2017-11-19T20:44:56.363Z,69.00
2017-11-19T20:47:23.973Z,69.10
2017-11-19T20:49:51.528Z,69.00
2017-11-19T20:52:19.127Z,68.80
2017-11-19T20:54:47.449Z,69.40
2017-11-19T20:57:15.043Z,69.30
2017-11-19T20:59:42.606Z,69.20
2017-11-19T21:02:13.278Z,69.40
2017-11-19T21:04:40.838Z,69.50
2017-11-19T21:07:08.457Z,69.10
2017-11-19T21:09:36.016Z,69.10
2017-11-19T21:12:03.611Z,69.20
2017-11-19T21:14:31.943Z,69.20
2017-11-19T21:16:59.546Z,69.20
2017-11-19T21:19:27.932Z,69.50
2017-11-19T21:21:55.607Z,69.50
2017-11-19T21:24:23.229Z,69.50
2017-11-19T21:26:50.787Z,69.10
2017-11-19T21:29:18.351Z,69.50
2017-11-19T21:31:45.948Z,69.50
2017-11-19T21:34:13.503Z,69.60
2017-11-19T21:36:41.099Z,69.80
2017-11-19T21:39:08.665Z,69.40
2017-11-19T21:41:36.286Z,69.40
2017-11-19T21:44:03.897Z,69.40
2017-11-19T21:46:31.493Z,69.80
2017-11-19T21:48:59.824Z,70.10
2017-11-19T21:51:27.419Z,70.10
2017-11-19T21:53:55.750Z,70.30
2017-11-19T21:56:23.360Z,70.10
2017-11-19T21:58:50.931Z,70.10
2017-11-19T22:01:19.261Z,70.60
2017-11-19T22:03:46.891Z,70.50
2017-11-19T22:06:14.498Z,70.30
2017-11-19T22:08:42.095Z,70.30
2017-11-19T22:11:10.420Z,70.50
2017-11-19T22:13:38.011Z,70.50
2017-11-19T22:16:05.575Z,70.60
2017-11-19T22:18:33.180Z,70.40
2017-11-19T22:21:00.746Z,71.10
2017-11-19T22:23:28.357Z,70.40
2017-11-19T22:25:55.916Z,70.60
2017-11-19T22:28:23.520Z,70.60
2017-11-19T22:30:51.093Z,70.70
2017-11-19T22:33:18.655Z,70.50
2017-11-19T22:35:46.255Z,70.60
2017-11-19T22:38:13.814Z,70.50
2017-11-19T22:40:41.415Z,70.30
2017-11-19T22:43:09.105Z,70.10
2017-11-19T22:45:36.742Z,69.80
2017-11-19T22:48:04.303Z,69.80
2017-11-19T22:50:31.868Z,69.80
2017-11-19T22:52:59.473Z,70.10
2017-11-19T22:55:27.050Z,69.90
2017-11-19T22:57:54.666Z,70.10
2017-11-19T23:00:22.240Z,70.10
2017-11-19T23:02:49.796Z,69.90
2017-11-19T23:05:17.386Z,69.90
2017-11-19T23:07:44.940Z,69.80
2017-11-19T23:10:12.535Z,70.00
2017-11-19T23:12:40.850Z,69.50
2017-11-19T23:15:08.444Z,69.50
2017-11-19T23:17:35.999Z,69.40
2017-11-19T23:20:03.560Z,69.60
2017-11-19T23:22:31.194Z,69.50
2017-11-19T23:24:58.765Z,70.00
2017-11-19T23:27:26.374Z,69.60
2017-11-19T23:29:54.749Z,69.60
2017-11-19T23:32:23.072Z,69.70
2017-11-19T23:34:50.623Z,69.60
2017-11-19T23:37:18.224Z,69.70
2017-11-19T23:39:45.832Z,70.10
2017-11-19T23:42:13.388Z,69.70
2017-11-19T23:44:40.979Z,69.70
2017-11-19T23:47:08.540Z,70.10
2017-11-19T23:49:36.139Z,70.50
2017-11-19T23:52:03.705Z,70.30
2017-11-19T23:54:32.024Z,70.70
2017-11-19T23:56:59.624Z,70.10
2017-11-19T23:59:27.197Z,70.40
